Time;durP1;ratioP1;P1;durP2;ratioP2;P2;SDS_P1;SDS_P2;PMS_P1;PMS_P2;Temp;Humidity;BMP_temperature;BMP_pressure;BME280_temperature;BME280_humidity;BME280_pressure;Samples;Min_cycle;Max_cycle;Signal;HPM_P1;HPM_P2
2022/09/06 00:01:11;;;;;;;15.25;9.63;;;16.50;75.00;;;;;;1898617;75;21379;-57
2022/09/06 00:03:40;;;;;;;11.63;8.60;;;16.50;74.80;;;;;;1898686;75;21036;-57
2022/09/06 00:06:12;;;;;;;15.72;8.60;;;16.40;75.00;;;;;;1898608;75;20977;-57
2022/09/06 00:08:43;;;;;;;12.88;8.80;;;16.40;75.00;;;;;;1898594;75;20977;-57
2022/09/06 00:11:12;;;;;;;13.58;8.40;;;16.40;74.90;;;;;;1898593;75;21066;-57
2022/09/06 00:13:41;;;;;;;11.25;8.23;;;16.40;75.10;;;;;;1898629;75;20945;-57
2022/09/06 00:16:15;;;;;;;13.88;8.33;;;16.30;75.10;;;;;;1898563;75;20981;-57
2022/09/06 00:18:44;;;;;;;11.78;7.30;;;16.30;75.00;;;;;;1897384;74;21396;-57
2022/09/06 00:21:16;;;;;;;16.37;8.28;;;16.30;75.30;;;;;;1898644;75;21098;-57
2022/09/06 00:23:45;;;;;;;12.43;8.13;;;16.30;75.60;;;;;;1898698;75;21031;-57
2022/09/06 00:26:14;;;;;;;14.55;8.10;;;16.30;75.50;;;;;;1898620;75;20985;-57
2022/09/06 00:28:43;;;;;;;15.63;8.00;;;16.30;75.70;;;;;;1898619;75;20977;-57
2022/09/06 00:31:18;;;;;;;16.97;8.53;;;16.30;75.80;;;;;;1898585;75;20981;-57
2022/09/06 00:33:47;;;;;;;12.93;7.95;;;16.30;75.50;;;;;;1898719;75;21025;-57
2022/09/06 00:36:16;;;;;;;12.90;8.68;;;16.30;75.20;;;;;;1898575;75;21039;-57
2022/09/06 00:38:45;;;;;;;13.25;9.13;;;16.20;75.20;;;;;;1898547;75;21046;-57
2022/09/06 00:41:15;;;;;;;18.40;11.70;;;16.10;75.30;;;;;;1898566;75;21050;-57
2022/09/06 00:43:44;;;;;;;17.85;13.05;;;16.10;75.60;;;;;;1898634;75;21458;-57
2022/09/06 00:46:16;;;;;;;14.68;10.70;;;16.10;75.50;;;;;;1898555;75;20984;-57
2022/09/06 00:48:46;;;;;;;16.23;10.50;;;16.10;75.60;;;;;;1896627;75;21407;-57
2022/09/06 00:51:16;;;;;;;14.60;9.55;;;16.10;75.50;;;;;;1898682;75;20984;-57
2022/09/06 00:53:46;;;;;;;13.60;8.25;;;16.10;75.20;;;;;;1898869;75;21071;-57
2022/09/06 00:56:15;;;;;;;16.93;10.48;;;16.00;75.10;;;;;;1898625;75;21067;-57
2022/09/06 00:58:45;;;;;;;13.28;8.78;;;15.90;75.50;;;;;;1898694;75;20965;-57
2022/09/06 01:01:14;;;;;;;12.53;8.83;;;15.90;75.40;;;;;;1898789;75;20973;-57
2022/09/06 01:03:43;;;;;;;15.78;11.70;;;15.80;75.40;;;;;;1898750;75;21416;-57
2022/09/06 01:06:20;;;;;;;15.88;10.25;;;15.70;75.00;;;;;;1898747;75;20981;-57
2022/09/06 01:09:07;;;;;;;14.25;9.48;;;15.60;75.40;;;;;;1898608;75;20969;-57
2022/09/06 01:11:41;;;;;;;14.45;9.23;;;15.40;76.00;;;;;;1896989;75;20953;-57
2022/09/06 01:14:28;;;;;;;13.43;9.43;;;15.40;76.30;;;;;;1897766;75;21054;-57
2022/09/06 01:17:05;;;;;;;15.93;8.70;;;15.40;76.80;;;;;;1898687;75;20997;-57
2022/09/06 01:19:53;;;;;;;11.78;8.45;;;15.50;76.60;;;;;;1897967;75;21047;-57
2022/09/06 01:22:28;;;;;;;12.35;8.20;;;15.40;76.10;;;;;;1898671;75;21459;-57
2022/09/06 01:25:05;;;;;;;15.25;9.18;;;15.40;76.10;;;;;;1897704;75;21036;-58
2022/09/06 01:27:55;;;;;;;17.67;9.83;;;15.40;76.70;;;;;;1892046;75;20992;-57
2022/09/06 01:30:24;;;;;;;15.23;9.30;;;15.40;76.40;;;;;;1798836;80;21086;-57
2022/09/06 01:33:10;;;;;;;12.58;8.03;;;15.30;76.10;;;;;;1798886;79;21527;-57
2022/09/06 01:35:45;;;;;;;13.62;8.95;;;15.30;76.30;;;;;;1849449;75;21087;-57
2022/09/06 01:38:15;;;;;;;11.57;8.58;;;15.30;76.10;;;;;;1900960;75;20989;-57
2022/09/06 01:40:44;;;;;;;13.95;8.55;;;15.30;76.60;;;;;;1900815;75;21043;-57
2022/09/06 01:43:15;;;;;;;12.18;8.48;;;15.30;76.70;;;;;;1900912;75;21403;-57
2022/09/06 01:46:15;;;;;;;15.53;9.48;;;15.30;77.00;;;;;;1900690;75;20997;-57
2022/09/06 01:49:04;;;;;;;12.18;8.33;;;15.20;77.30;;;;;;1900805;75;20973;-57
2022/09/06 01:51:53;;;;;;;12.63;8.75;;;15.30;76.80;;;;;;1900839;75;20993;-57
2022/09/06 01:54:40;;;;;;;11.75;7.92;;;15.20;76.80;;;;;;1900872;75;20969;-57
2022/09/06 01:57:15;;;;;;;12.65;7.85;;;15.20;76.70;;;;;;1900834;75;21021;-57
2022/09/06 01:59:52;;;;;;;13.65;8.83;;;15.10;77.00;;;;;;1899765;75;20981;-57
2022/09/06 02:02:42;;;;;;;11.83;8.55;;;15.10;77.40;;;;;;1898854;75;21064;-57
2022/09/06 02:05:13;;;;;;;13.50;8.65;;;15.10;77.40;;;;;;1900835;75;20953;-57
2022/09/06 02:07:45;;;;;;;13.88;8.20;;;15.00;77.50;;;;;;1900153;75;20965;-57
2022/09/06 02:10:25;;;;;;;14.28;9.25;;;15.00;77.50;;;;;;1900824;75;20973;-57
2022/09/06 02:12:57;;;;;;;12.03;8.43;;;15.00;77.70;;;;;;1900871;75;20984;-57
2022/09/06 02:15:28;;;;;;;11.70;8.65;;;15.00;77.70;;;;;;1900813;75;20953;-57
2022/09/06 02:18:03;;;;;;;14.28;8.58;;;15.00;77.00;;;;;;1899664;75;21000;-57
2022/09/06 02:20:34;;;;;;;16.80;8.80;;;14.90;77.60;;;;;;1898931;75;21032;-57
2022/09/06 02:23:07;;;;;;;12.80;8.63;;;14.90;78.10;;;;;;1900878;75;20985;-57
2022/09/06 02:25:38;;;;;;;15.35;8.83;;;14.90;78.00;;;;;;1900819;75;20972;-57
2022/09/06 02:28:08;;;;;;;16.80;10.18;;;14.80;78.30;;;;;;1900659;75;21029;-57
2022/09/06 02:30:40;;;;;;;13.30;9.40;;;14.80;78.30;;;;;;1900768;75;21042;-57
2022/09/06 02:33:12;;;;;;;11.85;8.93;;;14.90;78.20;;;;;;1900868;75;20953;-57
2022/09/06 02:35:47;;;;;;;15.80;8.43;;;14.90;78.30;;;;;;1898954;74;21001;-57
2022/09/06 02:38:17;;;;;;;13.98;8.80;;;14.80;78.40;;;;;;1901478;75;21046;-57
2022/09/06 02:40:47;;;;;;;12.37;8.20;;;14.90;77.70;;;;;;1901377;75;20973;-57
2022/09/06 02:43:16;;;;;;;13.55;8.23;;;14.80;77.90;;;;;;1901522;75;20972;-57
2022/09/06 02:45:45;;;;;;;13.98;8.60;;;14.80;77.80;;;;;;1901432;75;20941;-57
2022/09/06 02:48:14;;;;;;;14.63;9.25;;;14.70;77.40;;;;;;1901411;75;20945;-57
2022/09/06 02:50:43;;;;;;;14.45;9.28;;;14.70;77.70;;;;;;1901415;75;21356;-57
2022/09/06 02:53:14;;;;;;;15.25;9.48;;;14.70;77.80;;;;;;1901345;75;20961;-57
2022/09/06 02:55:43;;;;;;;12.65;8.30;;;14.70;77.90;;;;;;1901360;75;21028;-57
2022/09/06 02:58:12;;;;;;;15.53;9.78;;;14.60;78.10;;;;;;1901476;75;20969;-57
2022/09/06 03:00:42;;;;;;;23.05;10.05;;;14.60;77.80;;;;;;1901455;75;21005;-57
2022/09/06 03:03:11;;;;;;;15.93;9.85;;;14.50;78.10;;;;;;1901368;75;21489;-57
2022/09/06 03:05:40;;;;;;;16.85;9.93;;;14.50;78.30;;;;;;1901388;75;20985;-57
2022/09/06 03:08:09;;;;;;;14.55;9.70;;;14.60;78.20;;;;;;1901362;75;20977;-57
2022/09/06 03:10:38;;;;;;;15.65;9.00;;;14.60;78.30;;;;;;1901479;75;20950;-57
2022/09/06 03:13:06;;;;;;;14.60;9.13;;;14.60;78.60;;;;;;1901389;75;21403;-57
2022/09/06 03:15:35;;;;;;;24.47;9.98;;;14.60;78.30;;;;;;1901491;75;20997;-57
2022/09/06 03:18:04;;;;;;;17.85;10.25;;;14.60;77.80;;;;;;1901340;75;20973;-57
2022/09/06 03:20:33;;;;;;;15.40;9.35;;;14.60;78.10;;;;;;1901363;75;20985;-57
2022/09/06 03:23:02;;;;;;;15.05;9.63;;;14.60;78.30;;;;;;1901402;75;20973;-57
2022/09/06 03:25:31;;;;;;;15.05;9.53;;;14.60;78.50;;;;;;1901405;75;20989;-57
2022/09/06 03:28:00;;;;;;;14.40;9.80;;;14.60;78.50;;;;;;1901499;75;20945;-57
2022/09/06 03:30:29;;;;;;;26.07;12.00;;;14.60;78.60;;;;;;1901348;75;21498;-57
2022/09/06 03:32:58;;;;;;;19.90;11.28;;;14.60;78.70;;;;;;1901334;75;21403;-57
2022/09/06 03:35:27;;;;;;;20.97;9.80;;;14.70;78.20;;;;;;1901398;75;20977;-57
2022/09/06 03:37:56;;;;;;;16.25;9.58;;;14.70;77.80;;;;;;1901392;75;21070;-57
2022/09/06 03:40:25;;;;;;;16.50;12.18;;;14.70;77.70;;;;;;1901306;75;20993;-57
2022/09/06 03:42:54;;;;;;;15.13;10.38;;;14.70;78.10;;;;;;1901427;75;21485;-57
2022/09/06 03:45:23;;;;;;;17.92;9.80;;;14.80;78.30;;;;;;1901454;75;21024;-57
2022/09/06 03:47:52;;;;;;;18.25;9.43;;;14.80;77.50;;;;;;1901480;75;21027;-57
2022/09/06 03:50:21;;;;;;;15.83;10.10;;;14.80;77.90;;;;;;1901478;75;20989;-57
2022/09/06 03:52:50;;;;;;;17.48;10.15;;;14.80;78.10;;;;;;1901404;75;20985;-57
2022/09/06 03:55:19;;;;;;;15.13;9.50;;;14.80;78.60;;;;;;1901389;75;21447;-57
2022/09/06 03:57:48;;;;;;;17.15;10.72;;;14.80;78.10;;;;;;1901371;75;20953;-57
2022/09/06 04:00:17;;;;;;;19.73;11.75;;;15.00;77.90;;;;;;1901269;75;21059;-57
2022/09/06 04:02:46;;;;;;;19.12;11.05;;;15.00;77.90;;;;;;1901454;75;21100;-57
2022/09/06 04:05:15;;;;;;;24.60;11.10;;;15.10;77.50;;;;;;1901453;75;21000;-57
2022/09/06 04:07:44;;;;;;;18.62;11.00;;;15.10;76.40;;;;;;1901357;75;20977;-57
2022/09/06 04:10:13;;;;;;;25.80;12.60;;;15.10;76.90;;;;;;1901405;75;20993;-57
2022/09/06 04:12:42;;;;;;;22.45;13.95;;;15.10;76.60;;;;;;1901350;75;21427;-57
2022/09/06 04:15:11;;;;;;;20.10;12.20;;;15.10;76.90;;;;;;1901460;75;20973;-57
2022/09/06 04:17:41;;;;;;;20.45;12.20;;;15.20;76.90;;;;;;1901338;75;20985;-57
2022/09/06 04:20:10;;;;;;;20.68;11.73;;;15.30;77.20;;;;;;1901263;75;21051;-57
2022/09/06 04:22:39;;;;;;;20.55;10.88;;;15.40;76.70;;;;;;1901280;75;20977;-57
2022/09/06 04:25:09;;;;;;;19.17;11.73;;;15.60;76.60;;;;;;1901319;75;21004;-57
2022/09/06 04:27:38;;;;;;;20.80;10.68;;;15.80;76.40;;;;;;1901484;75;21479;-57
2022/09/06 04:30:08;;;;;;;28.30;12.25;;;16.00;76.20;;;;;;1901444;75;21031;-57
2022/09/06 04:32:37;;;;;;;13.50;10.15;;;16.10;75.80;;;;;;1901389;75;21008;-57
2022/09/06 04:35:06;;;;;;;24.70;14.07;;;16.20;75.60;;;;;;1901396;75;20945;-57
2022/09/06 04:37:36;;;;;;;22.70;13.55;;;16.40;75.10;;;;;;1901218;75;21029;-58
2022/09/06 04:40:05;;;;;;;16.67;11.75;;;16.40;73.60;;;;;;1901290;75;21051;-58
2022/09/06 04:42:34;;;;;;;24.20;12.60;;;16.40;73.50;;;;;;1901324;75;20969;-57
2022/09/06 04:45:03;;;;;;;19.30;11.50;;;16.50;71.70;;;;;;1901345;75;20969;-57
2022/09/06 04:47:31;;;;;;;18.07;11.65;;;16.50;72.10;;;;;;1901557;75;20977;-57
2022/09/06 04:50:00;;;;;;;18.73;10.65;;;16.60;72.50;;;;;;1901306;75;21000;-57
2022/09/06 04:52:29;;;;;;;25.02;11.83;;;16.70;72.70;;;;;;1901436;75;21376;-57
2022/09/06 04:54:58;;;;;;;18.92;11.73;;;16.70;73.10;;;;;;1901406;75;20945;-57
2022/09/06 04:57:27;;;;;;;17.40;11.50;;;16.90;73.00;;;;;;1901300;75;20960;-57
2022/09/06 04:59:56;;;;;;;25.62;12.53;;;17.00;72.30;;;;;;1901254;75;20953;-57
2022/09/06 05:02:25;;;;;;;23.47;11.25;;;17.10;72.30;;;;;;1901289;75;21392;-57
2022/09/06 05:04:54;;;;;;;17.12;11.68;;;17.20;72.00;;;;;;1901308;75;20953;-57
2022/09/06 05:07:23;;;;;;;21.73;12.88;;;17.30;71.60;;;;;;1901352;75;20989;-57
2022/09/06 05:09:52;;;;;;;20.88;11.73;;;17.40;71.10;;;;;;1901389;75;21082;-57
2022/09/06 05:12:21;;;;;;;19.73;13.08;;;17.40;71.30;;;;;;1901273;75;21060;-57
2022/09/06 05:14:49;;;;;;;22.02;13.08;;;17.50;70.20;;;;;;1901333;75;21063;-57
2022/09/06 05:17:18;;;;;;;28.38;13.58;;;17.50;69.40;;;;;;1901297;75;20989;-57
2022/09/06 05:19:47;;;;;;;25.70;13.50;;;17.60;69.70;;;;;;1901272;75;21079;-57
2022/09/06 05:22:16;;;;;;;22.35;13.40;;;17.60;69.20;;;;;;1901198;75;21050;-57
2022/09/06 05:24:45;;;;;;;23.02;13.03;;;17.70;69.00;;;;;;1901270;75;21039;-57
2022/09/06 05:27:14;;;;;;;23.32;13.70;;;17.80;68.60;;;;;;1901237;75;21419;-58
2022/09/06 05:29:43;;;;;;;20.48;12.07;;;17.80;68.50;;;;;;1901262;75;20973;-57
2022/09/06 05:32:12;;;;;;;18.37;11.65;;;17.80;66.90;;;;;;1901302;75;21058;-57
2022/09/06 05:34:41;;;;;;;22.22;12.07;;;17.70;66.80;;;;;;1901348;75;21039;-57
2022/09/06 05:37:10;;;;;;;17.62;10.88;;;17.70;66.80;;;;;;1896237;75;21467;-57
2022/09/06 05:39:39;;;;;;;16.27;10.45;;;17.70;65.80;;;;;;1891903;76;20985;-57
2022/09/06 05:42:08;;;;;;;16.42;10.25;;;17.80;67.10;;;;;;1891854;76;20993;-57
2022/09/06 05:44:37;;;;;;;21.65;11.20;;;17.80;65.70;;;;;;1891921;76;20989;-57
2022/09/06 05:47:06;;;;;;;14.87;10.08;;;17.80;63.80;;;;;;1891957;76;20982;-57
2022/09/06 05:49:35;;;;;;;15.32;10.72;;;17.80;63.70;;;;;;1892024;76;20954;-58
2022/09/06 05:52:04;;;;;;;17.70;11.68;;;17.80;62.30;;;;;;1892004;76;20965;-57
2022/09/06 05:54:33;;;;;;;18.67;11.43;;;17.90;61.10;;;;;;1891939;76;20989;-57
2022/09/06 05:57:02;;;;;;;18.00;9.90;;;17.90;61.30;;;;;;1891878;76;21526;-57
2022/09/06 05:59:31;;;;;;;15.00;9.30;;;17.90;62.20;;;;;;1891935;76;20974;-57
2022/09/06 06:02:00;;;;;;;15.83;9.93;;;18.00;59.40;;;;;;1891840;76;20961;-57
2022/09/06 06:04:29;;;;;;;20.50;10.65;;;18.10;59.60;;;;;;1891926;76;20985;-57
2022/09/06 06:06:57;;;;;;;21.90;12.20;;;18.10;59.60;;;;;;1891907;76;21510;-58
2022/09/06 06:09:26;;;;;;;14.90;9.58;;;18.20;59.10;;;;;;1891810;76;20989;-57
2022/09/06 06:11:55;;;;;;;34.23;16.67;;;18.20;58.10;;;;;;1891894;76;20993;-57
2022/09/06 06:14:24;;;;;;;13.40;8.50;;;18.30;57.60;;;;;;1891865;76;21080;-57
2022/09/06 06:16:53;;;;;;;20.30;10.53;;;18.30;56.80;;;;;;1891974;76;21039;-57
2022/09/06 06:19:22;;;;;;;25.95;11.97;;;18.30;57.00;;;;;;1892036;76;20969;-57
2022/09/06 06:21:51;;;;;;;18.60;10.68;;;18.40;57.90;;;;;;1891886;76;21001;-57
2022/09/06 06:24:20;;;;;;;15.98;10.08;;;18.50;57.90;;;;;;1891896;76;20989;-57
2022/09/06 06:26:49;;;;;;;16.02;10.75;;;18.70;59.00;;;;;;1892014;76;21067;-57
2022/09/06 06:29:18;;;;;;;17.10;10.13;;;18.80;58.10;;;;;;1891927;76;21464;-57
2022/09/06 06:31:47;;;;;;;19.07;10.13;;;18.90;57.50;;;;;;1892072;76;20977;-57
2022/09/06 06:34:20;;;;;;;16.60;9.33;;;19.00;54.90;;;;;;1891964;76;21047;-57
2022/09/06 06:36:46;;;;;;;13.50;9.13;;;19.00;55.40;;;;;;1891399;75;20965;-57
2022/09/06 06:39:15;;;;;;;18.10;10.85;;;19.20;55.90;;;;;;1891997;76;20989;-58
2022/09/06 06:41:44;;;;;;;13.90;10.10;;;19.30;54.90;;;;;;1892014;76;20997;-58
2022/09/06 06:44:30;;;;;;;13.03;9.78;;;19.40;52.70;;;;;;1876855;76;21039;-58
2022/09/06 06:47:01;;;;;;;13.28;9.88;;;19.50;53.00;;;;;;1891928;76;21084;-57
2022/09/06 06:49:29;;;;;;;12.43;8.83;;;19.60;53.70;;;;;;1892039;76;20981;-57
2022/09/06 06:51:58;;;;;;;14.45;10.50;;;19.70;52.00;;;;;;1892007;76;21396;-57
2022/09/06 06:54:28;;;;;;;14.50;9.85;;;19.70;52.00;;;;;;1892027;76;20957;-57
2022/09/06 06:56:57;;;;;;;15.20;9.95;;;19.80;52.30;;;;;;1891958;76;20993;-57
2022/09/06 06:59:26;;;;;;;18.48;10.58;;;19.90;51.10;;;;;;1892012;76;20957;-58
2022/09/06 07:01:55;;;;;;;27.17;11.10;;;19.90;50.80;;;;;;1891906;76;20946;-58
2022/09/06 07:04:24;;;;;;;17.95;9.60;;;19.90;51.50;;;;;;1891869;76;21047;-58
2022/09/06 07:06:54;;;;;;;13.08;9.23;;;20.00;50.40;;;;;;1892049;76;21043;-57
2022/09/06 07:09:23;;;;;;;13.62;7.95;;;20.10;49.90;;;;;;1892020;76;21035;-57
2022/09/06 07:11:52;;;;;;;11.15;8.10;;;20.10;49.80;;;;;;1892013;76;21051;-57
2022/09/06 07:14:21;;;;;;;12.18;9.03;;;20.10;50.00;;;;;;1892069;76;21384;-58
2022/09/06 07:16:54;;;;;;;10.93;8.18;;;20.20;50.20;;;;;;1892034;76;20949;-57
2022/09/06 07:19:21;;;;;;;14.93;10.20;;;20.30;49.00;;;;;;1891771;75;20997;-57
2022/09/06 07:21:49;;;;;;;13.50;9.95;;;20.40;49.10;;;;;;1891977;76;20949;-58
2022/09/06 07:24:18;;;;;;;12.05;8.00;;;20.50;48.60;;;;;;1891993;76;20981;-57
2022/09/06 07:26:47;;;;;;;10.00;6.75;;;20.60;48.30;;;;;;1891969;76;20969;-58
2022/09/06 07:29:16;;;;;;;12.07;7.78;;;20.70;48.60;;;;;;1892052;76;21465;-59
2022/09/06 07:31:45;;;;;;;8.53;6.03;;;20.80;48.60;;;;;;1891110;76;21058;-58
2022/09/06 07:34:14;;;;;;;9.28;6.53;;;21.00;49.50;;;;;;1891749;76;20962;-59
2022/09/06 07:36:43;;;;;;;10.93;6.95;;;21.10;49.20;;;;;;1891759;76;21396;-58
2022/09/06 07:39:13;;;;;;;13.22;7.60;;;21.20;49.90;;;;;;1891581;75;21095;-57
2022/09/06 07:41:43;;;;;;;14.20;7.37;;;21.40;49.50;;;;;;1891648;76;21043;-58
2022/09/06 07:44:12;;;;;;;13.03;7.37;;;21.50;51.40;;;;;;1891664;76;21059;-59
2022/09/06 07:46:41;;;;;;;7.90;6.03;;;21.60;51.00;;;;;;1891583;76;21376;-60
2022/09/06 07:49:09;;;;;;;11.78;6.53;;;21.70;51.20;;;;;;1891781;76;20992;-60
2022/09/06 07:51:40;;;;;;;13.55;5.95;;;21.80;50.60;;;;;;1891633;75;21045;-64
2022/09/06 07:54:09;;;;;;;8.83;6.97;;;21.90;49.50;;;;;;1891612;76;21004;-57
2022/09/06 07:56:38;;;;;;;7.50;6.40;;;21.80;47.30;;;;;;1891682;76;21001;-59
2022/09/06 07:59:08;;;;;;;16.48;6.05;;;21.70;48.50;;;;;;1891590;76;21059;-66
2022/09/06 08:01:38;;;;;;;10.43;7.22;;;21.70;49.50;;;;;;1891714;76;20981;-58
2022/09/06 08:04:12;;;;;;;9.45;7.45;;;21.70;49.40;;;;;;1891725;76;21055;-63
2022/09/06 08:06:47;;;;;;;11.50;6.97;;;21.60;47.60;;;;;;1891906;76;20981;-69
2022/09/06 08:09:16;;;;;;;13.00;6.83;;;21.50;47.20;;;;;;1891833;76;20985;-71
2022/09/06 08:11:45;;;;;;;10.55;7.12;;;21.30;46.60;;;;;;1891817;76;20989;-75
2022/09/06 08:14:14;;;;;;;8.43;5.95;;;21.30;47.80;;;;;;1891734;76;20974;-66
2022/09/06 08:16:42;;;;;;;10.78;6.75;;;21.30;47.20;;;;;;1891588;76;21083;-67
2022/09/06 08:19:11;;;;;;;8.10;5.50;;;21.40;47.70;;;;;;1891761;76;20977;-66
2022/09/06 08:21:41;;;;;;;8.65;6.78;;;21.40;49.10;;;;;;1891638;76;21035;-66
2022/09/06 08:24:10;;;;;;;13.70;6.42;;;21.60;47.30;;;;;;1891738;76;21001;-65
2022/09/06 08:26:42;;;;;;;9.35;6.70;;;21.60;48.10;;;;;;1891730;76;21157;-63
2022/09/06 08:29:12;;;;;;;11.08;5.72;;;21.70;48.60;;;;;;1891695;76;21013;-68
2022/09/06 08:31:44;;;;;;;24.50;7.05;;;21.80;49.10;;;;;;1891782;76;20989;-68
2022/09/06 08:34:13;;;;;;;23.42;6.58;;;22.00;47.50;;;;;;1891781;76;20984;-76
2022/09/06 08:36:44;;;;;;;13.98;5.95;;;21.90;46.20;;;;;;1891739;76;20993;-64
2022/09/06 08:39:13;;;;;;;12.85;7.05;;;21.90;46.90;;;;;;1891748;75;21009;-64
2022/09/06 08:41:47;;;;;;;10.68;6.08;;;21.80;47.20;;;;;;1891698;76;21464;-71
2022/09/06 08:44:22;;;;;;;12.73;3.80;;;21.80;46.90;;;;;;1891859;76;21431;-67
2022/09/06 08:46:57;;;;;;;10.53;5.80;;;21.90;46.80;;;;;;1891867;76;21024;-68
2022/09/06 08:49:26;;;;;;;;;;;21.90;47.90;;;;;;1894531;76;20981;-63
2022/09/06 08:52:32;;;;;;;12.50;6.28;;;22.00;47.80;;;;;;1891536;75;20370;-65
2022/09/06 08:55:16;;;;;;;10.60;6.03;;;22.00;47.80;;;;;;1890314;76;21087;-66
2022/09/06 08:57:53;;;;;;;8.73;6.20;;;22.10;45.30;;;;;;1891608;76;20997;-64
2022/09/06 09:00:23;;;;;;;13.72;6.10;;;22.00;45.60;;;;;;1890917;76;20961;-63
2022/09/06 09:03:03;;;;;;;8.40;5.42;;;22.00;45.90;;;;;;1891702;76;20969;-67
2022/09/06 09:05:35;;;;;;;8.28;4.95;;;22.00;46.90;;;;;;1891500;76;21074;-67
2022/09/06 09:08:09;;;;;;;8.40;6.15;;;22.00;47.60;;;;;;1891568;76;21027;-63
2022/09/06 09:10:43;;;;;;;12.85;6.75;;;22.10;48.00;;;;;;1891793;75;21059;-66
2022/09/06 09:13:18;;;;;;;7.28;5.28;;;22.20;48.10;;;;;;1891752;76;21043;-64
2022/09/06 09:15:47;;;;;;;6.28;4.53;;;22.30;47.30;;;;;;1890127;76;21041;-64
2022/09/06 09:18:18;;;;;;;8.00;4.47;;;22.30;45.70;;;;;;1891670;76;21001;-65
2022/09/06 09:20:47;;;;;;;8.88;5.00;;;22.30;45.10;;;;;;1891544;76;20994;-60
2022/09/06 09:23:16;;;;;;;8.28;4.17;;;22.40;44.90;;;;;;1891623;76;21001;-63
2022/09/06 09:25:46;;;;;;;9.85;6.67;;;22.40;44.10;;;;;;1891647;76;21029;-63
2022/09/06 09:28:20;;;;;;;7.25;4.03;;;22.40;45.20;;;;;;1891590;76;21009;-63
2022/09/06 09:30:54;;;;;;;5.67;3.72;;;22.40;46.00;;;;;;1891793;76;20973;-59
2022/09/06 09:33:28;;;;;;;6.53;4.40;;;22.50;45.30;;;;;;1891850;76;21063;-66
2022/09/06 09:36:00;;;;;;;8.38;4.05;;;22.60;46.20;;;;;;1891754;76;21051;-64
2022/09/06 09:38:34;;;;;;;6.28;4.00;;;22.70;45.20;;;;;;1891635;75;21001;-69
2022/09/06 09:41:06;;;;;;;5.40;4.15;;;22.70;45.60;;;;;;1900261;75;21082;-67
2022/09/06 09:43:38;;;;;;;7.10;3.98;;;22.80;45.80;;;;;;1900935;75;20977;-68
2022/09/06 09:46:16;;;;;;;4.75;3.95;;;22.90;46.30;;;;;;1900967;75;20992;-69
2022/09/06 09:49:08;;;;;;;9.08;4.08;;;22.90;45.00;;;;;;1901032;75;21465;-74
2022/09/06 09:51:42;;;;;;;6.62;3.67;;;22.90;44.70;;;;;;1900929;75;20973;-71
2022/09/06 09:54:14;;;;;;;8.78;4.33;;;23.00;45.60;;;;;;1901156;75;20996;-71
2022/09/06 09:56:51;;;;;;;4.08;3.40;;;23.00;44.70;;;;;;1900957;75;21017;-72
2022/09/06 09:59:28;;;;;;;3.37;3.05;;;23.00;44.70;;;;;;1895573;75;21406;-71
2022/09/06 10:02:00;;;;;;;9.08;4.03;;;23.00;44.90;;;;;;1898615;75;21009;-69
2022/09/06 10:04:40;;;;;;;8.25;4.60;;;22.80;43.90;;;;;;1900885;75;20989;-66
2022/09/06 10:07:12;;;;;;;7.72;4.03;;;22.70;45.30;;;;;;1900188;75;21387;-64
2022/09/06 10:09:43;;;;;;;5.83;3.98;;;22.70;45.90;;;;;;1900963;75;21063;-64
2022/09/06 10:12:33;;;;;;;6.97;4.12;;;22.60;45.70;;;;;;1900928;75;21472;-63
2022/09/06 10:15:02;;;;;;;4.90;4.25;;;22.50;47.10;;;;;;1901080;75;21462;-65
2022/09/06 10:17:34;;;;;;;17.32;5.47;;;22.40;46.00;;;;;;1900976;75;21450;-66
2022/09/06 10:20:15;;;;;;;9.65;4.47;;;22.40;45.60;;;;;;1901115;75;21455;-63
2022/09/06 10:23:03;;;;;;;13.90;4.10;;;22.50;46.40;;;;;;1901380;75;20965;-64
2022/09/06 10:25:43;;;;;;;7.35;4.37;;;22.60;45.60;;;;;;1901200;75;21427;-64
2022/09/06 10:28:15;;;;;;;13.62;4.25;;;22.60;45.80;;;;;;1899150;75;21020;-65
2022/09/06 10:31:03;;;;;;;7.10;4.60;;;22.70;45.60;;;;;;1901311;75;20993;-65
2022/09/06 10:33:35;;;;;;;7.62;3.80;;;22.80;45.40;;;;;;1854081;75;21000;-65
2022/09/06 10:36:04;;;;;;;10.95;4.65;;;22.90;45.60;;;;;;1901245;75;21059;-65
2022/09/06 10:38:54;;;;;;;7.12;3.98;;;23.00;45.10;;;;;;1901231;75;21392;-65
2022/09/06 10:41:36;;;;;;;8.78;4.10;;;23.00;45.30;;;;;;1879393;76;21083;-65
2022/09/06 10:44:13;;;;;;;5.45;4.00;;;23.00;45.10;;;;;;1861973;76;20973;-65
2022/09/06 10:46:44;;;;;;;8.78;4.53;;;23.00;45.20;;;;;;1890440;76;20985;-65
2022/09/06 10:49:16;;;;;;;6.92;3.87;;;22.90;45.30;;;;;;1891891;76;20945;-65
2022/09/06 10:52:00;;;;;;;5.25;3.70;;;22.80;45.50;;;;;;1891009;76;21039;-63
2022/09/06 10:54:32;;;;;;;7.75;4.00;;;22.60;45.60;;;;;;1891951;76;21043;-64
2022/09/06 10:57:10;;;;;;;6.97;4.33;;;22.50;45.10;;;;;;1891893;76;20969;-63
2022/09/06 10:59:58;;;;;;;8.58;4.00;;;22.50;45.70;;;;;;1892026;76;21009;-63
2022/09/06 11:02:53;;;;;;;6.62;4.55;;;22.40;45.80;;;;;;1891823;76;20993;-64
2022/09/06 11:05:25;;;;;;;10.65;4.28;;;22.30;45.50;;;;;;1891735;76;21514;-63
2022/09/06 11:08:06;;;;;;;10.03;4.97;;;22.30;45.50;;;;;;1891323;73;20961;-63
2022/09/06 11:10:42;;;;;;;13.75;4.42;;;22.20;45.00;;;;;;1891873;76;20989;-63
2022/09/06 11:13:16;;;;;;;5.75;3.83;;;22.10;45.30;;;;;;1891888;76;20949;-63
2022/09/06 11:16:08;;;;;;;9.45;3.37;;;22.10;45.60;;;;;;1891987;76;21487;-63
2022/09/06 11:18:49;;;;;;;5.67;4.28;;;22.10;46.30;;;;;;1891852;76;20981;-63
2022/09/06 11:21:46;;;;;;;5.87;2.70;;;22.00;45.90;;;;;;1891990;76;20977;-64
2022/09/06 11:24:18;;;;;;;5.45;3.40;;;22.00;46.30;;;;;;1891980;76;21052;-64
2022/09/06 11:27:07;;;;;;;4.92;3.27;;;22.10;46.60;;;;;;1890913;76;20974;-63
2022/09/06 11:29:39;;;;;;;6.22;3.25;;;22.10;46.90;;;;;;1891573;75;20957;-63
2022/09/06 11:32:42;;;;;;;8.33;3.33;;;22.10;47.20;;;;;;1892024;75;21013;-63
2022/09/06 11:35:26;;;;;;;8.23;3.50;;;22.10;47.60;;;;;;1892000;76;20949;-64
2022/09/06 11:38:04;;;;;;;4.78;3.15;;;22.30;47.30;;;;;;1892139;76;20942;-63
2022/09/06 11:40:40;;;;;;;6.12;3.08;;;22.40;46.70;;;;;;1889473;75;21033;-64
2022/09/06 11:43:11;;;;;;;7.53;3.80;;;22.40;46.70;;;;;;1891785;76;21059;-64
2022/09/06 11:45:46;;;;;;;5.60;3.67;;;22.40;46.80;;;;;;1891979;76;21059;-64
2022/09/06 11:48:33;;;;;;;;;;;22.40;46.60;;;;;;1887430;76;21063;-64
2022/09/06 11:50:57;;;;;;;6.25;4.25;;;22.40;46.20;;;;;;1890559;76;20109;-64
2022/09/06 11:53:29;;;;;;;12.88;4.62;;;22.40;46.40;;;;;;1891933;76;21533;-64
2022/09/06 11:56:04;;;;;;;5.28;4.62;;;22.40;46.00;;;;;;1891840;76;21416;-64
2022/09/06 11:58:41;;;;;;;13.90;7.22;;;22.40;45.70;;;;;;1892223;76;20978;-64
2022/09/06 12:01:17;;;;;;;14.83;6.62;;;22.30;45.50;;;;;;1891915;76;20973;-64
2022/09/06 12:03:55;;;;;;;9.93;5.40;;;22.20;45.50;;;;;;1865545;76;21471;-64
2022/09/06 12:06:30;;;;;;;11.12;4.75;;;22.10;46.30;;;;;;1892033;76;21466;-64
2022/09/06 12:08:59;;;;;;;8.05;4.83;;;22.10;46.00;;;;;;1892123;76;21439;-64
2022/09/06 12:11:36;;;;;;;12.63;6.08;;;22.10;46.20;;;;;;1891987;76;21063;-64
2022/09/06 12:14:34;;;;;;;9.53;5.22;;;22.00;46.40;;;;;;1892051;76;21066;-64
2022/09/06 12:17:10;;;;;;;8.28;4.70;;;22.00;46.40;;;;;;1891977;76;21063;-64
2022/09/06 12:19:53;;;;;;;13.10;5.60;;;22.20;46.20;;;;;;1892095;76;21478;-64
2022/09/06 12:22:39;;;;;;;14.23;5.03;;;22.30;46.40;;;;;;1892001;76;20950;-64
2022/09/06 12:25:19;;;;;;;14.47;6.25;;;22.30;45.80;;;;;;1891072;76;21108;-64
2022/09/06 12:28:02;;;;;;;11.00;6.55;;;22.20;46.30;;;;;;1891965;76;20949;-65
2022/09/06 12:30:40;;;;;;;6.95;5.78;;;22.10;46.80;;;;;;1879593;76;21412;-64
2022/09/06 12:33:33;;;;;;;10.35;6.83;;;22.00;46.70;;;;;;1892076;76;20961;-64
2022/09/06 12:36:22;;;;;;;13.95;10.53;;;22.00;47.20;;;;;;1892075;76;21017;-64
2022/09/06 12:38:59;;;;;;;24.23;11.85;;;22.10;47.00;;;;;;1892044;76;20997;-65
2022/09/06 12:41:31;;;;;;;10.45;7.53;;;22.20;46.90;;;;;;1895786;75;21001;-64
2022/09/06 12:44:01;;;;;;;10.93;7.58;;;22.30;46.50;;;;;;1898539;75;21536;-64
2022/09/06 12:46:31;;;;;;;9.75;7.72;;;22.30;46.70;;;;;;1898564;75;21047;-64
2022/09/06 12:49:08;;;;;;;11.60;7.20;;;22.30;46.30;;;;;;1898597;75;20989;-64
2022/09/06 12:51:39;;;;;;;7.33;6.30;;;22.40;46.70;;;;;;1898496;75;21047;-64
2022/09/06 12:54:27;;;;;;;7.12;6.08;;;22.30;46.10;;;;;;1898519;75;21411;-64
2022/09/06 12:56:59;;;;;;;16.60;5.90;;;22.30;46.30;;;;;;1898554;75;20949;-63
2022/09/06 12:59:28;;;;;;;9.45;5.70;;;22.30;46.10;;;;;;1893972;75;20981;-62
2022/09/06 13:02:00;;;;;;;7.95;5.22;;;22.20;45.80;;;;;;1898417;75;20976;-64
2022/09/06 13:04:52;;;;;;;8.18;4.75;;;22.10;45.90;;;;;;1898493;75;21399;-63
2022/09/06 13:07:23;;;;;;;11.50;5.87;;;22.00;45.90;;;;;;1896409;75;21503;-63